Smooth Rock Falls, Canada
Current Conditions -  °F | °C
As of 5:00 PM on Thursday 23 Oct 2014 (Local Time) from CYYU Reporting Station
Few Clouds Few Clouds  
Wind Chill: 55°   Ceiling: Unl
Heat Index: 55°   Visibility: 15mi
Dew Point: 28°   Wind: 12mph
Humidity: 36%   Direction: 180°S
Pressure: 30.02"   Gusts: NA
Location:  49.28°N, 81.63°W
Report Text: CYYU 232100Z 18010KT 15SM FEW240 13/M02 A3002 RMK CI1 SLP175
Loading
Personal Weather Stations






























Interactive Weather Map
Tropical Storm Tracking
New forecast layout! Learn more

10-Day Weather Forecast

Advertisements
Track Severe Weather on mobile